Time;durP1;ratioP1;P1;durP2;ratioP2;P2;SDS_P1;SDS_P2;PMS_P1;PMS_P2;Temp;Humidity;BMP_temperature;BMP_pressure;BME280_temperature;BME280_humidity;BME280_pressure;Samples;Min_cycle;Max_cycle;Signal;HPM_P1;HPM_P2
2023/03/06 00:00:31;;;;;;;39.57;15.60;;;-4.10;99.90;;;;;;4738271;30;20213;-70
2023/03/06 00:02:59;;;;;;;35.50;14.63;;;-4.10;99.90;;;;;;4753105;30;20570;-78
2023/03/06 00:05:27;;;;;;;37.60;15.60;;;-4.20;99.90;;;;;;4769262;30;20292;-78
2023/03/06 00:07:54;;;;;;;37.80;14.70;;;-4.20;99.90;;;;;;4769586;30;20229;-83
2023/03/06 00:10:26;;;;;;;41.00;15.20;;;-4.20;99.90;;;;;;4753490;30;20215;-79
2023/03/06 00:12:55;;;;;;;36.73;14.33;;;-4.20;99.90;;;;;;4753329;30;20200;-81
2023/03/06 00:15:25;;;;;;;38.37;16.07;;;-4.20;99.90;;;;;;4767776;30;20278;-80
2023/03/06 00:17:52;;;;;;;33.40;15.13;;;-4.20;99.90;;;;;;4752576;30;20216;-77
2023/03/06 00:20:19;;;;;;;39.17;16.17;;;-4.20;99.90;;;;;;4767830;30;20212;-75
2023/03/06 00:22:47;;;;;;;37.93;15.53;;;-4.10;99.90;;;;;;4768904;30;20303;-73
2023/03/06 00:25:17;;;;;;;37.90;15.93;;;-4.10;99.90;;;;;;4753547;30;20691;-75
2023/03/06 00:27:44;;;;;;;36.40;14.70;;;-4.10;99.90;;;;;;4758525;30;20232;-78
2023/03/06 00:30:13;;;;;;;36.80;15.90;;;-4.10;99.90;;;;;;4758643;30;20205;-79
2023/03/06 00:32:41;;;;;;;38.70;15.33;;;-4.10;99.90;;;;;;4774968;30;20224;-74
2023/03/06 00:35:08;;;;;;;36.43;15.50;;;-4.20;99.90;;;;;;4758855;30;20215;-71
2023/03/06 00:37:35;;;;;;;37.20;16.10;;;-4.20;99.90;;;;;;4775005;30;20208;-68
2023/03/06 00:40:12;;;;;;;36.97;15.50;;;-4.20;99.90;;;;;;4758496;30;20213;-70
2023/03/06 00:42:39;;;;;;;40.10;16.63;;;-4.20;99.90;;;;;;4758633;30;20619;-71
2023/03/06 00:45:07;;;;;;;37.87;16.77;;;-4.20;99.90;;;;;;4774290;30;20550;-72
2023/03/06 00:47:34;;;;;;;38.33;16.27;;;-4.20;99.90;;;;;;4758281;30;20248;-73
2023/03/06 00:50:00;;;;;;;39.30;16.53;;;-4.10;99.90;;;;;;4773373;30;20190;-70
2023/03/06 00:52:27;;;;;;;38.43;16.73;;;-4.20;99.90;;;;;;4758444;30;20206;-69
2023/03/06 00:54:54;;;;;;;39.80;16.37;;;-4.20;99.90;;;;;;4758383;30;20590;-68
2023/03/06 00:57:21;;;;;;;36.83;16.03;;;-4.20;99.90;;;;;;4758210;30;20216;-68
2023/03/06 00:59:48;;;;;;;40.17;16.00;;;-4.10;99.90;;;;;;4774599;30;20530;-68
2023/03/06 01:02:15;;;;;;;37.53;15.37;;;-4.10;99.90;;;;;;4758209;30;20661;-69
2023/03/06 01:04:42;;;;;;;39.67;16.60;;;-4.10;99.90;;;;;;4758310;30;20190;-82
2023/03/06 01:07:09;;;;;;;38.37;17.00;;;-4.10;99.90;;;;;;4774277;30;20706;-76
2023/03/06 01:09:36;;;;;;;39.70;16.53;;;-4.10;99.90;;;;;;4758359;30;20300;-69
2023/03/06 01:12:03;;;;;;;39.40;17.10;;;-4.20;99.90;;;;;;4774559;30;20211;-71
2023/03/06 01:14:30;;;;;;;40.50;16.63;;;-4.10;99.90;;;;;;4773081;30;20206;-70
2023/03/06 01:16:57;;;;;;;38.17;16.13;;;-4.10;99.90;;;;;;4758288;30;20658;-72
2023/03/06 01:19:24;;;;;;;39.73;16.93;;;-4.10;99.90;;;;;;4774094;30;20660;-85
2023/03/06 01:21:51;;;;;;;35.30;16.47;;;-4.10;99.90;;;;;;4758529;30;20209;-83
2023/03/06 01:24:18;;;;;;;38.80;16.87;;;-4.10;99.90;;;;;;4758346;30;20236;-84
2023/03/06 01:26:45;;;;;;;42.17;15.90;;;-4.10;99.90;;;;;;4758144;30;20209;-84
2023/03/06 01:29:12;;;;;;;38.37;16.13;;;-4.10;99.90;;;;;;4757923;30;20606;-80
2023/03/06 01:31:38;;;;;;;39.03;16.20;;;-4.00;99.90;;;;;;4774481;30;20209;-84
2023/03/06 01:34:05;;;;;;;36.97;15.53;;;-4.10;99.90;;;;;;4774389;30;20698;-82
2023/03/06 01:36:32;;;;;;;37.93;16.00;;;-4.10;99.90;;;;;;4757966;30;20197;-85
2023/03/06 01:38:59;;;;;;;36.40;15.57;;;-4.10;99.90;;;;;;4754927;30;20258;-84
2023/03/06 01:41:26;;;;;;;36.93;16.73;;;-4.10;99.90;;;;;;4771646;30;20518;-83
2023/03/06 01:43:53;;;;;;;40.80;16.57;;;-4.10;99.90;;;;;;4755578;30;20211;-80
2023/03/06 01:46:32;;;;;;;35.07;15.87;;;-4.10;99.90;;;;;;4755321;30;20205;-81
2023/03/06 01:49:13;;;;;;;40.07;16.97;;;-4.10;99.90;;;;;;4755826;30;20239;-85
2023/03/06 01:51:50;;;;;;;36.67;15.77;;;-4.10;99.90;;;;;;4756227;30;20199;-87
2023/03/06 01:54:25;;;;;;;36.27;15.93;;;-4.10;99.90;;;;;;4770198;30;20206;-87
2023/03/06 01:56:58;;;;;;;40.40;16.73;;;-4.20;99.90;;;;;;4771224;30;20209;-85
2023/03/06 01:59:27;;;;;;;37.33;15.93;;;-4.20;99.90;;;;;;4771403;30;20218;-84
2023/03/06 02:01:55;;;;;;;40.20;16.53;;;-4.20;99.90;;;;;;4740942;30;20205;-86
2023/03/06 02:04:23;;;;;;;36.73;15.93;;;-4.20;99.90;;;;;;4772180;30;20209;-85
2023/03/06 02:06:50;;;;;;;37.07;16.67;;;-4.20;99.90;;;;;;4755936;30;20207;-86
2023/03/06 02:09:17;;;;;;;37.27;16.23;;;-4.10;99.90;;;;;;4755407;30;20233;-87
2023/03/06 02:11:45;;;;;;;39.63;17.00;;;-4.20;99.90;;;;;;4755305;30;20206;-86
2023/03/06 02:14:15;;;;;;;37.17;16.37;;;-4.20;99.90;;;;;;4754736;30;20274;-84
2023/03/06 02:16:42;;;;;;;37.13;15.90;;;-4.20;99.90;;;;;;4755606;30;20212;-86
2023/03/06 02:19:18;;;;;;;38.47;16.40;;;-4.10;99.90;;;;;;4755734;30;20210;-80
2023/03/06 02:21:45;;;;;;;44.73;17.03;;;-4.20;99.90;;;;;;4782417;30;20296;-83
2023/03/06 02:24:44;;;;;;;39.07;16.03;;;-4.20;99.90;;;;;;4759074;30;20216;-86
2023/03/06 02:27:13;;;;;;;40.40;16.80;;;-4.20;99.90;;;;;;4752847;30;20274;-78
2023/03/06 02:29:40;;;;;;;38.37;16.17;;;-4.20;99.90;;;;;;4770808;30;20501;-86
2023/03/06 02:32:07;;;;;;;35.97;16.83;;;-4.20;99.90;;;;;;4754794;30;20212;-80
2023/03/06 02:34:37;;;;;;;39.77;17.20;;;-4.20;99.90;;;;;;4754443;30;20267;-83
2023/03/06 02:37:10;;;;;;;38.17;17.00;;;-4.20;99.90;;;;;;4771230;30;20204;-83
2023/03/06 02:39:41;;;;;;;39.93;16.47;;;-4.20;99.90;;;;;;4754411;30;20219;-82
2023/03/06 02:42:08;;;;;;;37.43;16.37;;;-4.20;99.90;;;;;;4754633;30;20209;-87
2023/03/06 02:44:36;;;;;;;37.33;15.93;;;-4.20;99.90;;;;;;4754499;30;20584;-85
2023/03/06 02:47:03;;;;;;;40.17;17.00;;;-4.20;99.90;;;;;;4754092;30;20225;-86
2023/03/06 02:49:29;;;;;;;34.10;15.93;;;-4.10;99.90;;;;;;4754141;30;20613;-85
2023/03/06 02:51:56;;;;;;;36.47;16.50;;;-4.10;99.90;;;;;;4754336;30;20658;-86
2023/03/06 02:54:23;;;;;;;38.90;15.97;;;-4.20;99.90;;;;;;4771055;30;20235;-85
2023/03/06 02:56:50;;;;;;;38.83;16.67;;;-4.10;99.90;;;;;;4754041;30;20251;-85
2023/03/06 02:59:17;;;;;;;39.13;16.53;;;-4.20;99.90;;;;;;4770696;30;20205;-85
2023/03/06 03:01:44;;;;;;;40.00;16.40;;;-4.20;99.90;;;;;;4755208;30;20224;-82
2023/03/06 03:04:11;;;;;;;43.67;17.50;;;-4.30;99.90;;;;;;4754394;30;20213;-82
2023/03/06 03:06:38;;;;;;;43.60;16.40;;;-4.30;99.90;;;;;;4753894;30;20240;-84
2023/03/06 03:09:06;;;;;;;37.47;16.13;;;-4.30;99.90;;;;;;4754127;30;20241;-74
2023/03/06 03:11:33;;;;;;;39.43;17.10;;;-4.30;99.90;;;;;;4769868;30;20197;-75
2023/03/06 03:13:59;;;;;;;39.27;16.23;;;-4.30;99.90;;;;;;4753689;30;20235;-83
2023/03/06 03:16:26;;;;;;;42.17;17.97;;;-4.30;99.90;;;;;;4770084;30;20208;-84
2023/03/06 03:18:53;;;;;;;40.20;17.23;;;-4.30;99.90;;;;;;4770519;30;20217;-80
2023/03/06 03:21:20;;;;;;;39.90;16.63;;;-4.30;99.90;;;;;;4770637;30;20202;-88
2023/03/06 03:23:47;;;;;;;39.47;17.03;;;-4.40;99.90;;;;;;4754815;30;20205;-82
2023/03/06 03:26:18;;;;;;;41.27;17.50;;;-4.40;99.90;;;;;;4754471;30;20601;-88
2023/03/06 03:28:44;;;;;;;41.07;17.33;;;-4.30;99.90;;;;;;4754564;30;20244;-77
2023/03/06 03:31:12;;;;;;;35.77;16.87;;;-4.40;99.90;;;;;;4753556;30;20189;-80
2023/03/06 03:33:40;;;;;;;43.80;17.70;;;-4.40;99.90;;;;;;4739057;30;20661;-76
2023/03/06 03:36:08;;;;;;;40.67;16.73;;;-4.40;99.90;;;;;;4738873;30;20292;-79
2023/03/06 03:38:35;;;;;;;36.70;16.70;;;-4.40;99.90;;;;;;4753609;30;20215;-87
2023/03/06 03:41:03;;;;;;;39.00;17.00;;;-4.40;99.90;;;;;;4753328;30;20206;-84
2023/03/06 03:43:30;;;;;;;42.43;17.17;;;-4.40;99.90;;;;;;4754426;30;20216;-79
2023/03/06 03:45:57;;;;;;;38.60;17.33;;;-4.40;99.90;;;;;;4753420;30;20194;-83
2023/03/06 03:48:24;;;;;;;42.00;16.93;;;-4.50;99.90;;;;;;4753293;30;20252;-75
2023/03/06 03:50:51;;;;;;;38.70;17.00;;;-4.40;99.90;;;;;;4753352;30;20197;-82
2023/03/06 03:53:18;;;;;;;40.73;17.17;;;-4.50;99.90;;;;;;4753174;30;20720;-83
2023/03/06 03:55:48;;;;;;;39.40;16.53;;;-4.50;99.90;;;;;;4769584;30;20212;-86
2023/03/06 03:58:15;;;;;;;38.07;16.17;;;-4.50;99.90;;;;;;4753987;30;20203;-78
2023/03/06 04:00:42;;;;;;;36.60;16.60;;;-4.40;99.90;;;;;;4753620;30;20223;-77
2023/03/06 04:03:09;;;;;;;35.93;16.53;;;-4.40;99.90;;;;;;4753542;30;20676;-81
2023/03/06 04:05:35;;;;;;;39.30;16.30;;;-4.40;99.90;;;;;;4770647;30;20223;-79
2023/03/06 04:08:04;;;;;;;41.13;16.17;;;-4.50;99.90;;;;;;4760751;30;20323;-85
2023/03/06 04:10:31;;;;;;;39.10;15.80;;;-4.40;99.90;;;;;;4753810;30;20201;-82
2023/03/06 04:12:58;;;;;;;43.90;16.63;;;-4.50;99.90;;;;;;4769506;30;20296;-84
2023/03/06 04:15:25;;;;;;;34.67;15.87;;;-4.50;99.90;;;;;;4752997;30;20209;-79
2023/03/06 04:17:52;;;;;;;36.57;16.50;;;-4.60;99.90;;;;;;4753414;30;20644;-83
2023/03/06 04:20:19;;;;;;;39.07;16.10;;;-4.50;99.90;;;;;;4769132;30;20213;-82
2023/03/06 04:22:46;;;;;;;36.83;16.33;;;-4.50;99.90;;;;;;4769299;30;20209;-84
2023/03/06 04:25:13;;;;;;;39.40;16.40;;;-4.50;99.90;;;;;;4753394;30;20233;-84
2023/03/06 04:27:39;;;;;;;40.53;16.27;;;-4.60;99.90;;;;;;4769728;30;20228;-86
2023/03/06 04:30:07;;;;;;;39.47;16.93;;;-4.60;99.90;;;;;;4753463;30;20213;-81
2023/03/06 04:32:34;;;;;;;36.33;15.90;;;-4.60;99.90;;;;;;4753229;30;20216;-83
2023/03/06 04:35:01;;;;;;;40.53;16.57;;;-4.50;99.90;;;;;;4753247;30;20300;-83
2023/03/06 04:37:28;;;;;;;37.33;15.97;;;-4.60;99.90;;;;;;4753396;30;20273;-75
2023/03/06 04:39:56;;;;;;;36.03;15.60;;;-4.70;99.90;;;;;;4770142;30;20212;-77
2023/03/06 04:42:24;;;;;;;35.67;15.73;;;-4.70;99.90;;;;;;4772280;30;20246;-81
2023/03/06 04:44:51;;;;;;;35.97;15.50;;;-4.70;99.90;;;;;;4759071;30;20227;-85
2023/03/06 04:47:19;;;;;;;36.27;15.70;;;-4.60;99.90;;;;;;4758495;30;20237;-82
2023/03/06 04:49:46;;;;;;;36.80;16.33;;;-4.60;99.90;;;;;;4772662;30;20221;-89
2023/03/06 04:52:12;;;;;;;40.87;16.13;;;-4.60;99.90;;;;;;4753792;30;20321;-83
2023/03/06 04:54:39;;;;;;;41.07;16.77;;;-4.60;99.90;;;;;;4753359;30;20288;-73
2023/03/06 04:57:06;;;;;;;38.20;16.03;;;-4.70;99.90;;;;;;4752564;30;20220;-76
2023/03/06 04:59:33;;;;;;;40.33;16.50;;;-4.60;99.90;;;;;;4752399;30;20221;-74
2023/03/06 05:02:00;;;;;;;37.33;15.80;;;-4.60;99.90;;;;;;4752685;30;20603;-70
2023/03/06 05:04:27;;;;;;;39.67;16.40;;;-4.70;99.90;;;;;;4752345;30;20210;-73
2023/03/06 05:06:54;;;;;;;40.00;16.57;;;-4.70;99.90;;;;;;4752520;30;20296;-78
2023/03/06 05:09:21;;;;;;;37.87;16.63;;;-4.70;99.90;;;;;;4752275;30;20229;-74
2023/03/06 05:11:48;;;;;;;37.50;15.57;;;-4.70;99.90;;;;;;4753241;30;20212;-72
2023/03/06 05:14:14;;;;;;;36.63;16.07;;;-4.70;99.90;;;;;;4755591;30;20571;-77
2023/03/06 05:16:41;;;;;;;37.27;16.30;;;-4.70;99.90;;;;;;4757179;30;20235;-78
2023/03/06 05:19:08;;;;;;;36.40;15.83;;;-4.70;99.90;;;;;;4757033;30;20216;-85
2023/03/06 05:21:35;;;;;;;35.30;15.97;;;-4.70;99.90;;;;;;4773106;30;20211;-85
2023/03/06 05:24:02;;;;;;;39.57;16.10;;;-4.70;99.90;;;;;;4759134;30;20205;-73
2023/03/06 05:26:29;;;;;;;42.40;16.63;;;-4.70;99.90;;;;;;4764379;30;20248;-77
2023/03/06 05:28:56;;;;;;;37.67;16.73;;;-4.70;99.90;;;;;;4757649;30;20243;-87
2023/03/06 05:31:22;;;;;;;38.33;16.17;;;-4.60;99.90;;;;;;4782973;30;20625;-75
2023/03/06 05:33:49;;;;;;;32.27;15.00;;;-4.60;99.90;;;;;;4760283;30;20213;-86
2023/03/06 05:36:16;;;;;;;39.80;16.53;;;-4.60;99.90;;;;;;4756195;30;20200;-79
2023/03/06 05:38:43;;;;;;;38.80;16.87;;;-4.60;99.90;;;;;;4758901;30;20212;-83
2023/03/06 05:41:11;;;;;;;38.47;16.37;;;-4.70;99.90;;;;;;4755811;30;20209;-71
2023/03/06 05:43:38;;;;;;;36.03;15.87;;;-4.70;99.90;;;;;;4740571;30;20208;-72
2023/03/06 05:46:06;;;;;;;37.73;16.13;;;-4.70;99.90;;;;;;4771459;30;20523;-76
2023/03/06 05:48:34;;;;;;;36.73;16.47;;;-4.70;99.90;;;;;;4755622;30;20258;-86
2023/03/06 05:51:03;;;;;;;37.60;16.30;;;-4.70;99.90;;;;;;4757075;30;20205;-80
2023/03/06 05:53:31;;;;;;;36.33;16.43;;;-4.70;99.90;;;;;;4766041;30;20225;-86
2023/03/06 05:56:06;;;;;;;40.93;17.47;;;-4.70;99.90;;;;;;4755910;30;20213;-75
2023/03/06 05:58:33;;;;;;;41.90;16.37;;;-4.60;99.90;;;;;;4771630;30;20215;-71
2023/03/06 06:01:06;;;;;;;37.80;16.13;;;-4.50;99.90;;;;;;4754848;30;20213;-71
2023/03/06 06:03:33;;;;;;;34.13;16.27;;;-4.50;99.90;;;;;;4769891;30;20194;-70
2023/03/06 06:06:06;;;;;;;39.13;16.00;;;-4.50;99.90;;;;;;4754576;30;20236;-70
2023/03/06 06:08:34;;;;;;;37.90;16.43;;;-4.40;99.90;;;;;;4755368;30;20300;-73
2023/03/06 06:11:02;;;;;;;38.10;16.10;;;-4.30;99.90;;;;;;4754738;30;20557;-72
2023/03/06 06:13:29;;;;;;;36.73;15.83;;;-4.30;99.90;;;;;;4756227;30;20201;-82
2023/03/06 06:15:56;;;;;;;36.80;15.80;;;-4.20;99.90;;;;;;4771385;30;20204;-74
2023/03/06 06:18:23;;;;;;;40.77;15.63;;;-4.20;99.90;;;;;;4769481;30;20201;-75
2023/03/06 06:20:50;;;;;;;38.40;15.53;;;-4.20;99.90;;;;;;4754863;30;20299;-73
2023/03/06 06:23:17;;;;;;;36.70;15.43;;;-4.10;99.90;;;;;;4758611;30;20198;-75
2023/03/06 06:25:44;;;;;;;35.30;15.00;;;-4.10;99.90;;;;;;4759610;30;20237;-75
2023/03/06 06:28:11;;;;;;;34.20;15.50;;;-4.10;99.90;;;;;;4756207;30;20303;-72
2023/03/06 06:30:38;;;;;;;36.47;16.10;;;-4.00;99.90;;;;;;4770623;30;20235;-77
2023/03/06 06:33:05;;;;;;;33.33;16.53;;;-4.00;99.90;;;;;;4754922;30;20204;-69
2023/03/06 06:35:35;;;;;;;35.00;15.60;;;-3.80;99.90;;;;;;4754290;30;20205;-75
2023/03/06 06:38:02;;;;;;;40.77;16.20;;;-3.90;99.90;;;;;;4755017;30;20219;-78
2023/03/06 06:40:29;;;;;;;36.23;15.40;;;-3.70;99.90;;;;;;4770584;30;20292;-69
2023/03/06 06:42:56;;;;;;;37.20;15.23;;;-3.60;99.90;;;;;;4770637;30;20216;-76
2023/03/06 06:45:26;;;;;;;34.90;15.73;;;-3.50;99.90;;;;;;4753700;30;20205;-78
2023/03/06 06:48:10;;;;;;;38.47;14.87;;;-3.40;99.90;;;;;;4729483;30;20271;-75
2023/03/06 06:50:37;;;;;;;34.67;15.60;;;-3.50;99.90;;;;;;4763058;30;20255;-77
2023/03/06 06:53:04;;;;;;;35.50;15.57;;;-3.40;99.90;;;;;;4752070;30;20215;-82
2023/03/06 06:55:31;;;;;;;30.37;14.70;;;-3.40;99.90;;;;;;4770203;30;20699;-73
2023/03/06 06:57:58;;;;;;;33.07;15.27;;;-3.30;99.90;;;;;;4751565;30;20218;-79
2023/03/06 07:00:25;;;;;;;35.73;15.30;;;-3.30;99.90;;;;;;4769568;30;20209;-80
2023/03/06 07:02:52;;;;;;;32.43;14.53;;;-3.20;99.90;;;;;;4770370;30;20205;-74
2023/03/06 07:05:18;;;;;;;32.37;15.70;;;-3.10;99.90;;;;;;4770163;30;20209;-73
2023/03/06 07:07:49;;;;;;;31.57;15.67;;;-3.00;99.90;;;;;;4751119;30;20206;-73
2023/03/06 07:10:16;;;;;;;38.83;17.17;;;-3.00;99.90;;;;;;4752124;30;20680;-73
2023/03/06 07:12:46;;;;;;;38.13;15.33;;;-2.80;99.90;;;;;;4770235;30;20573;-77
2023/03/06 07:15:17;;;;;;;34.97;15.73;;;-2.70;99.90;;;;;;4751591;30;20563;-74
2023/03/06 07:17:44;;;;;;;33.03;15.53;;;-2.50;99.90;;;;;;4754216;30;20207;-78
2023/03/06 07:20:12;;;;;;;35.70;15.37;;;-2.30;99.90;;;;;;4751042;30;20300;-77
2023/03/06 07:22:39;;;;;;;37.13;15.47;;;-2.10;99.90;;;;;;4770324;30;20693;-76
2023/03/06 07:25:16;;;;;;;36.87;15.57;;;-1.80;99.90;;;;;;4770069;30;20255;-72
2023/03/06 07:27:43;;;;;;;29.87;14.03;;;-1.70;99.90;;;;;;4768429;30;20268;-72
2023/03/06 07:30:19;;;;;;;31.10;14.90;;;-1.60;99.90;;;;;;4770155;30;20725;-70
2023/03/06 07:32:45;;;;;;;30.97;15.20;;;-1.50;99.90;;;;;;4750247;30;20219;-73
2023/03/06 07:35:16;;;;;;;31.53;15.20;;;-1.40;99.90;;;;;;4750322;30;20213;-76
2023/03/06 07:37:48;;;;;;;33.30;14.23;;;-1.30;99.90;;;;;;4751643;30;20230;-77
2023/03/06 07:40:19;;;;;;;33.03;15.50;;;-1.40;99.90;;;;;;4767528;30;20208;-76
2023/03/06 07:42:46;;;;;;;34.27;16.47;;;-1.40;99.90;;;;;;4767306;30;20194;-76
2023/03/06 07:45:13;;;;;;;33.43;15.07;;;-1.40;99.90;;;;;;4768644;30;20214;-76
2023/03/06 07:47:41;;;;;;;34.87;14.67;;;-1.40;99.90;;;;;;4751078;30;20242;-75
2023/03/06 07:50:09;;;;;;;35.33;14.93;;;-1.40;99.90;;;;;;4750438;30;20291;-72
2023/03/06 07:52:35;;;;;;;30.10;14.90;;;-1.40;99.90;;;;;;4761430;30;20194;-75
2023/03/06 07:55:03;;;;;;;33.63;16.13;;;-1.40;99.90;;;;;;4744376;30;20211;-69
2023/03/06 07:57:30;;;;;;;35.00;15.60;;;-1.40;99.90;;;;;;4749884;30;20243;-75
2023/03/06 07:59:57;;;;;;;35.97;16.60;;;-1.30;99.90;;;;;;4733090;30;20192;-72
2023/03/06 08:02:24;;;;;;;36.20;16.00;;;-1.10;99.90;;;;;;4742160;30;20305;-70
2023/03/06 08:04:52;;;;;;;34.37;16.10;;;-1.00;99.90;;;;;;4753292;30;20208;-70
2023/03/06 08:07:19;;;;;;;32.57;14.80;;;-0.90;99.90;;;;;;4751385;30;20305;-71
2023/03/06 08:09:47;;;;;;;31.70;15.07;;;-1.00;99.90;;;;;;4762818;30;20280;-70
2023/03/06 08:12:14;;;;;;;30.30;14.33;;;-1.00;99.90;;;;;;4739393;30;20680;-71
2023/03/06 08:14:42;;;;;;;30.50;14.63;;;-0.90;99.90;;;;;;4760512;30;20208;-79
2023/03/06 08:17:09;;;;;;;30.20;14.00;;;-0.80;99.90;;;;;;4765920;30;20215;-69
2023/03/06 08:19:36;;;;;;;29.93;13.97;;;-0.50;99.90;;;;;;4749897;30;20198;-68
2023/03/06 08:22:04;;;;;;;28.80;13.77;;;-0.40;99.90;;;;;;4732346;30;20681;-66
2023/03/06 08:24:32;;;;;;;32.03;14.33;;;-0.30;99.90;;;;;;4750380;30;20225;-67
2023/03/06 08:26:59;;;;;;;29.57;13.80;;;-0.20;99.90;;;;;;4749075;30;20205;-68
2023/03/06 08:29:27;;;;;;;27.07;12.53;;;-0.20;99.90;;;;;;4766924;30;20224;-70
2023/03/06 08:31:54;;;;;;;24.70;12.50;;;-0.10;99.90;;;;;;4749907;30;20236;-72
2023/03/06 08:34:25;;;;;;;29.60;14.00;;;-0.10;99.90;;;;;;4749480;30;20264;-72
2023/03/06 08:36:52;;;;;;;25.67;11.80;;;0.20;99.90;;;;;;4767590;30;20208;-69
2023/03/06 08:39:22;;;;;;;24.17;11.90;;;0.50;99.90;;;;;;4751264;30;20209;-70
2023/03/06 08:41:50;;;;;;;25.67;11.70;;;0.60;99.90;;;;;;4735169;30;20527;-72
2023/03/06 08:44:17;;;;;;;25.03;11.63;;;0.90;99.90;;;;;;4749077;30;20217;-73
2023/03/06 08:46:45;;;;;;;22.73;10.60;;;1.20;99.90;;;;;;4750434;30;20607;-74
2023/03/06 08:49:12;;;;;;;25.43;11.53;;;1.60;99.90;;;;;;4753703;30;20221;-71
2023/03/06 08:51:39;;;;;;;22.53;11.37;;;1.80;99.90;;;;;;4767794;30;20194;-70
2023/03/06 08:54:07;;;;;;;20.90;10.33;;;1.60;99.90;;;;;;4772062;30;20201;-70
2023/03/06 08:56:34;;;;;;;20.10;9.97;;;2.10;99.90;;;;;;4770951;30;20555;-70
2023/03/06 08:59:03;;;;;;;15.33;8.33;;;2.30;99.90;;;;;;4772027;30;20199;-74
2023/03/06 09:01:33;;;;;;;17.33;8.67;;;2.20;99.90;;;;;;4765489;30;20209;-69
2023/03/06 09:04:07;;;;;;;17.73;8.00;;;2.30;99.90;;;;;;4752964;30;20297;-70
2023/03/06 09:06:38;;;;;;;14.37;7.70;;;2.30;99.90;;;;;;4753138;30;20271;-71
2023/03/06 09:09:06;;;;;;;15.00;7.70;;;2.60;99.90;;;;;;4769994;30;20284;-70
2023/03/06 09:11:34;;;;;;;17.50;8.20;;;2.90;99.90;;;;;;4770636;30;20208;-73
2023/03/06 09:14:02;;;;;;;14.87;7.90;;;2.90;99.90;;;;;;4771105;30;20205;-72
2023/03/06 09:16:29;;;;;;;19.93;8.97;;;3.00;99.90;;;;;;4770642;30;20215;-75
2023/03/06 09:18:57;;;;;;;18.47;9.33;;;3.20;99.90;;;;;;4771943;30;20230;-73
2023/03/06 09:21:26;;;;;;;19.73;9.33;;;2.90;99.90;;;;;;4770435;30;20653;-72
2023/03/06 09:23:53;;;;;;;19.87;9.33;;;2.90;99.90;;;;;;4752770;30;20678;-70
2023/03/06 09:26:20;;;;;;;19.40;9.57;;;2.90;99.90;;;;;;4752606;30;20233;-74
2023/03/06 09:28:47;;;;;;;18.13;8.83;;;3.10;99.90;;;;;;4767976;30;20221;-72
2023/03/06 09:31:17;;;;;;;19.48;9.80;;;3.20;99.90;;;;;;4770277;30;20469;-72
2023/03/06 09:33:44;;;;;;;19.27;8.50;;;2.90;99.90;;;;;;4769753;30;20210;-73
2023/03/06 09:36:20;;;;;;;17.50;8.17;;;2.60;99.90;;;;;;4767164;30;20222;-72
2023/03/06 09:38:48;;;;;;;16.60;7.73;;;2.50;99.90;;;;;;4752829;30;20202;-69
2023/03/06 09:41:30;;;;;;;17.57;8.03;;;2.30;99.90;;;;;;4761243;30;20208;-69
2023/03/06 09:44:03;;;;;;;19.00;8.27;;;2.40;99.90;;;;;;4771690;30;20296;-70
2023/03/06 09:46:56;;;;;;;19.53;8.10;;;2.40;99.90;;;;;;4769862;30;20205;-70
2023/03/06 09:49:34;;;;;;;16.93;8.43;;;2.60;99.90;;;;;;4698623;30;20262;-70
2023/03/06 09:52:20;;;;;;;13.93;7.50;;;2.50;99.90;;;;;;4698940;30;20274;-72
2023/03/06 09:55:00;;;;;;;16.30;7.47;;;2.10;99.90;;;;;;4684605;30;20219;-71
2023/03/06 09:57:31;;;;;;;17.43;8.17;;;2.00;99.90;;;;;;4698581;30;20211;-68
2023/03/06 10:00:04;;;;;;;15.67;8.17;;;2.20;99.90;;;;;;4683668;30;20709;-72
2023/03/06 10:02:55;;;;;;;19.50;8.37;;;2.10;99.90;;;;;;4698667;30;20687;-69
2023/03/06 10:05:44;;;;;;;18.43;8.83;;;2.20;99.90;;;;;;4697964;30;20204;-72
2023/03/06 10:08:42;;;;;;;18.27;8.03;;;2.30;99.90;;;;;;4692655;30;20250;-71
2023/03/06 10:11:11;;;;;;;17.37;9.00;;;2.20;99.90;;;;;;4698662;30;20242;-69
2023/03/06 10:13:48;;;;;;;19.17;9.73;;;2.30;99.90;;;;;;4681065;30;20311;-69
2023/03/06 10:16:30;;;;;;;20.47;8.97;;;2.30;99.90;;;;;;4684047;30;20202;-70
2023/03/06 10:19:02;;;;;;;19.30;9.87;;;2.50;99.90;;;;;;4695784;30;20209;-70
2023/03/06 10:21:30;;;;;;;21.47;10.40;;;2.20;99.90;;;;;;4689258;30;20793;-71
2023/03/06 10:24:19;;;;;;;18.77;9.87;;;2.00;99.90;;;;;;4683439;30;20200;-71
2023/03/06 10:27:09;;;;;;;21.87;10.47;;;1.90;99.90;;;;;;4742989;30;20720;-72
2023/03/06 10:30:06;;;;;;;22.73;10.90;;;2.10;99.90;;;;;;4765377;30;20715;-74
2023/03/06 10:32:41;;;;;;;22.37;10.43;;;2.30;99.90;;;;;;4737142;30;20305;-72
2023/03/06 10:35:19;;;;;;;17.60;8.83;;;2.20;99.90;;;;;;4751606;30;20571;-73
2023/03/06 10:37:48;;;;;;;20.90;9.30;;;2.20;99.90;;;;;;4753083;30;20233;-70
2023/03/06 10:40:20;;;;;;;20.83;10.07;;;2.30;99.90;;;;;;4752562;30;20242;-71
2023/03/06 10:42:47;;;;;;;21.60;10.20;;;2.40;99.90;;;;;;4761579;30;20210;-70
2023/03/06 10:45:27;;;;;;;18.53;9.57;;;2.20;99.90;;;;;;4766894;30;20284;-69
2023/03/06 10:48:10;;;;;;;19.30;9.93;;;2.10;99.90;;;;;;4770343;30;20275;-72
2023/03/06 10:50:37;;;;;;;21.87;9.57;;;2.00;99.90;;;;;;4770184;30;20221;-74
2023/03/06 10:53:18;;;;;;;16.57;9.60;;;1.90;99.90;;;;;;4769441;30;20228;-72
2023/03/06 10:55:55;;;;;;;20.87;10.13;;;1.70;99.90;;;;;;4769996;30;20224;-73
2023/03/06 10:58:29;;;;;;;22.50;11.57;;;1.80;99.90;;;;;;4768563;30;20460;-70
2023/03/06 11:01:19;;;;;;;21.70;10.40;;;1.90;99.90;;;;;;4770280;30;20544;-75
2023/03/06 11:03:47;;;;;;;19.77;10.60;;;1.90;99.90;;;;;;4765589;30;20209;-72
2023/03/06 11:06:41;;;;;;;15.57;7.97;;;1.80;99.90;;;;;;4765249;30;20197;-72
2023/03/06 11:09:17;;;;;;;17.03;8.33;;;1.90;99.90;;;;;;4746059;30;20213;-73
2023/03/06 11:11:44;;;;;;;16.60;9.10;;;2.00;99.90;;;;;;4765797;30;20217;-71
2023/03/06 11:14:17;;;;;;;18.07;9.57;;;1.70;99.90;;;;;;4767881;30;20216;-67
2023/03/06 11:16:52;;;;;;;22.23;11.10;;;1.70;99.90;;;;;;4768335;30;20213;-69
2023/03/06 11:19:26;;;;;;;22.03;10.50;;;1.70;99.90;;;;;;4762733;30;20644;-70
2023/03/06 11:22:14;;;;;;;23.03;9.73;;;1.60;99.90;;;;;;4768690;30;20668;-75
2023/03/06 11:24:48;;;;;;;17.93;9.23;;;1.60;99.90;;;;;;4768920;30;20232;-74
2023/03/06 11:27:37;;;;;;;19.50;8.83;;;1.40;99.90;;;;;;4768480;30;20205;-73
2023/03/06 11:30:10;;;;;;;17.27;9.33;;;1.30;99.90;;;;;;4766719;30;20368;-76
2023/03/06 11:32:42;;;;;;;18.50;9.03;;;1.30;99.90;;;;;;4760838;30;20707;-71
2023/03/06 11:35:15;;;;;;;15.83;8.53;;;1.40;99.90;;;;;;4769409;30;20201;-73
2023/03/06 11:37:47;;;;;;;16.73;8.60;;;1.40;99.90;;;;;;4768116;30;20213;-70
2023/03/06 11:40:23;;;;;;;18.03;9.13;;;1.40;99.90;;;;;;4768161;30;20219;-70
2023/03/06 11:43:02;;;;;;;22.58;12.20;;;1.40;99.90;;;;;;4767005;30;20456;-72
2023/03/06 11:45:37;;;;;;;23.35;11.95;;;1.40;99.90;;;;;;4764683;30;20946;-73
2023/03/06 11:48:12;;;;;;;18.77;10.43;;;1.60;99.90;;;;;;4750153;30;20746;-70
2023/03/06 11:50:43;;;;;;;16.57;8.97;;;1.80;99.90;;;;;;4750042;30;20241;-74
2023/03/06 11:53:25;;;;;;;19.35;11.80;;;1.70;99.90;;;;;;4752026;30;20463;-73
2023/03/06 11:55:57;;;;;;;17.63;9.37;;;1.70;99.90;;;;;;4764062;30;20216;-84
2023/03/06 11:58:51;;;;;;;14.47;8.30;;;1.80;99.90;;;;;;4752519;30;20804;-86
2023/03/06 12:01:46;;;;;;;16.73;8.00;;;1.90;99.90;;;;;;4758286;30;20201;-77
2023/03/06 12:04:30;;;;;;;15.10;7.57;;;1.80;99.90;;;;;;4763274;30;20676;-78
2023/03/06 12:07:19;;;;;;;15.23;8.20;;;1.90;99.90;;;;;;4768360;30;20295;-73
2023/03/06 12:10:23;;;;;;;13.33;7.43;;;1.90;99.90;;;;;;4757297;30;20209;-74
2023/03/06 12:13:23;;;;;;;10.73;6.30;;;1.60;99.90;;;;;;4756686;30;20576;-75
2023/03/06 12:16:37;;;;;;;14.03;6.73;;;1.50;99.90;;;;;;4756842;30;20275;-78
2023/03/06 12:19:32;;;;;;;13.93;7.03;;;1.40;99.90;;;;;;4754247;30;20661;-80
2023/03/06 12:22:11;;;;;;;15.77;7.40;;;1.20;99.90;;;;;;4756013;30;20201;-79
2023/03/06 12:24:59;;;;;;;14.27;7.30;;;1.00;99.90;;;;;;4746233;30;20232;-78
2023/03/06 12:27:33;;;;;;;15.90;7.53;;;1.00;99.90;;;;;;4754368;30;20206;-79
2023/03/06 12:30:32;;;;;;;16.17;8.37;;;1.00;99.90;;;;;;4756098;30;20217;-80
2023/03/06 12:33:16;;;;;;;16.13;8.63;;;1.00;99.90;;;;;;4742775;30;20243;-74
2023/03/06 12:36:18;;;;;;;17.47;9.37;;;0.90;99.90;;;;;;4756202;30;20197;-82
2023/03/06 12:38:45;;;;;;;19.00;9.90;;;0.80;99.90;;;;;;4756326;30;20676;-81
2023/03/06 12:41:21;;;;;;;16.57;9.60;;;0.70;99.90;;;;;;4758141;30;20214;-81
2023/03/06 12:44:19;;;;;;;19.07;9.90;;;0.60;99.90;;;;;;4759716;30;20209;-81
2023/03/06 12:46:53;;;;;;;18.27;9.40;;;0.60;99.90;;;;;;4768861;30;20249;-79
2023/03/06 12:49:26;;;;;;;21.70;12.48;;;0.60;99.90;;;;;;4749705;30;20454;-73
2023/03/06 12:52:00;;;;;;;18.73;9.70;;;0.70;99.90;;;;;;4749654;30;20248;-72